Terminal Aerodrome Forecast
Issued by NWS

Home | Current Version | Previous Version | Text Only | Print | Product List | Glossary On
Versions: 1 2 3 4 5 6 7 8 9 10 11 12
000
FTUS45 KRIW 222300
TAFWRL
TAF
KWRL 222335Z 2300/2324 VRB06KT P6SM VCSH SCT090 BKN120
     FM230100 34011KT P6SM VCSH SCT050 BKN080
     FM230900 35008KT P6SM BKN090=

USA.gov is the U.S. government's official web portal to all federal, state and local government web resources and services.